Airfield :
LOGIN :

Register | Disclaimer

   EN    FR    IT 

 










Legend :    VFR   Marginal VFR   IFR   Intensive IFR   Very Intensive IFR
Visi :
Ceiling :
>= 8 km
>= 3000ft
5 to 8 km
1000 to 3000 ft
1500m to 5 km
500 to 1000 ft
800 to 1500m
200 to 500 ft
< 800m
< 200 ft
Symbols :   Thunderstorms  Fog  Heavy snow  Heavy precipitations  Wind > 20 kt
SIGMETs :     Misc.  Thunderstorms  Icing  Turbulence  Mountain Waves  Volcanic Ashes






- Airport Elevation : 84 ft


LFBC - Cazaux

CURRENT METAR :
  • 290230Z AUTO 24004KT 220V280 9999 SCT024 SCT032 OVC060 15/13 Q1024

EXPIRED METARs :
  • 290200Z AUTO 24005KT 210V270 9999 BKN027 BKN034 OVC060 15/13 Q1024
  • 290130Z AUTO 23005KT 9999 FEW025 OVC056 15/13 Q1024
  • 290100Z AUTO 24005KT 9999 FEW020 15/12 Q1024
  • 290030Z AUTO 23004KT 9999 FEW018 SCT068 14/12 Q1024
  • 290000Z AUTO 25005KT 220V280 9999 BKN021 BKN031 BKN058 15/12 Q1024

TAF TAF LFBC
Valid from the 28 at 15:00 until the 29 at 15:00 UTC


281400Z 2815/2915 25010KT 9999 BKN030
TEMPO 2903/2906 BKN014
TEMPO 2908/2911 18005KT



MET'MAP, your aeronautical weather chart ! - Copyright ORBIFLY December 2007 - Disclaimer

ORBIFLY MET'MAP TEAM :

Programming & Development : Alexandra Zaïnal
Concept & original design : Baudouin d'Aumeries
Assistance for programming : Marc-Olivier Méhu
Technical & hardware support : Manuel Goepfert

Contact : metmap@orbifly.com




SOURCES & CREDITS :

   NOAA